Airfield :
LOGIN :

Register | Disclaimer

   EN    FR    IT 

 










Legend :    VFR   Marginal VFR   IFR   Intensive IFR   Very Intensive IFR
Visi :
Ceiling :
>= 8 km
>= 3000ft
5 to 8 km
1000 to 3000 ft
1500m to 5 km
500 to 1000 ft
800 to 1500m
200 to 500 ft
< 800m
< 200 ft
Symbols :   Thunderstorms  Fog  Heavy snow  Heavy precipitations  Wind > 20 kt
SIGMETs :     Misc.  Thunderstorms  Icing  Turbulence  Mountain Waves  Volcanic Ashes







- Airport Elevation : 5600 ft
- IATA code : SMV


LSZS - Samedan

CURRENT METAR :
  • 151820Z AUTO 05006KT 350V090 9999 SCT080 11/06 Q1018

EXPIRED METARs :
  • 151750Z AUTO 01008KT 350V060 9999 -RA SCT050 SCT070 11/08 Q1018
  • 151720Z AUTO VRB05KT 9999 FEW050 10/07 Q1017
  • 151650Z 03007KT 9999 TSRA SCT050CB 10/06 Q1017 RERA RMK W
  • 151620Z 03021KT 9999 VCSH FEW050 BKN090 12/06 Q1017 RMK V
  • 151550Z 01009KT 9999 BKN090 15/05 Q1016 RMK U

TAF AMD TAF LSZS
Valid from the 15 at 16:00 until the 16 at 00:00 UTC


151624Z 1516/1524 03012KT 9999 FEW060 BKN090 TX15/1515Z
TEMPO 1515/1522 SHRA SCT040TCU
PROB30
TEMPO 1515/1519 35018G30KT 4500 TSRA SCT030CB
PROB30
TEMPO 1515/1518 19012KT
ATIS : +41 81 834 93 24
No reported NOTAMs for that airfield.



MET'MAP, your aeronautical weather chart ! - Copyright ORBIFLY December 2007 - Disclaimer

ORBIFLY MET'MAP TEAM :

Programming & Development : Alexandra Zaïnal
Concept & Development : Baudouin d'Aumeries
Co-Development & Prog : Marc-Olivier Méhu
Technical & hardware support : Manuel Goepfert

Contact : metmap@orbifly.com




SOURCES & CREDITS :

   NOAA